sensor_id;sensor_type;location;lat;lon;timestamp;temperature;humidity
46043;DHT22;32533;-33.854;18.542;2022-08-01T00:02:04;13.90;78.80
46043;DHT22;32533;-33.854;18.542;2022-08-01T00:04:30;13.90;78.70
46043;DHT22;32533;-33.854;18.542;2022-08-01T00:06:57;13.90;78.60
46043;DHT22;32533;-33.854;18.542;2022-08-01T00:09:23;13.90;78.70
46043;DHT22;32533;-33.854;18.542;2022-08-01T00:11:50;13.90;78.60
46043;DHT22;32533;-33.854;18.542;2022-08-01T00:14:16;13.90;78.60
46043;DHT22;32533;-33.854;18.542;2022-08-01T00:16:43;13.90;79.10
46043;DHT22;32533;-33.854;18.542;2022-08-01T00:19:09;13.80;78.90
46043;DHT22;32533;-33.854;18.542;2022-08-01T00:21:35;13.90;78.80
46043;DHT22;32533;-33.854;18.542;2022-08-01T00:24:02;13.80;78.90
46043;DHT22;32533;-33.854;18.542;2022-08-01T00:26:28;13.90;78.80
46043;DHT22;32533;-33.854;18.542;2022-08-01T00:28:55;13.80;78.90
46043;DHT22;32533;-33.854;18.542;2022-08-01T00:31:21;13.80;78.80
46043;DHT22;32533;-33.854;18.542;2022-08-01T00:33:48;13.80;78.90
46043;DHT22;32533;-33.854;18.542;2022-08-01T00:36:14;13.80;78.90
46043;DHT22;32533;-33.854;18.542;2022-08-01T00:38:41;13.80;78.80
46043;DHT22;32533;-33.854;18.542;2022-08-01T00:41:07;13.80;78.80
46043;DHT22;32533;-33.854;18.542;2022-08-01T00:43:34;13.80;78.60
46043;DHT22;32533;-33.854;18.542;2022-08-01T00:46:00;13.80;78.50
46043;DHT22;32533;-33.854;18.542;2022-08-01T00:48:27;13.80;79.00
46043;DHT22;32533;-33.854;18.542;2022-08-01T00:50:53;13.80;79.30
46043;DHT22;32533;-33.854;18.542;2022-08-01T00:53:20;13.80;79.00
46043;DHT22;32533;-33.854;18.542;2022-08-01T00:55:47;13.80;78.60
46043;DHT22;32533;-33.854;18.542;2022-08-01T00:58:14;13.70;77.80
46043;DHT22;32533;-33.854;18.542;2022-08-01T01:00:40;13.70;77.40
46043;DHT22;32533;-33.854;18.542;2022-08-01T01:03:07;13.70;77.20
46043;DHT22;32533;-33.854;18.542;2022-08-01T01:05:48;13.70;77.10
46043;DHT22;32533;-33.854;18.542;2022-08-01T01:08:24;13.70;77.80
46043;DHT22;32533;-33.854;18.542;2022-08-01T01:11:05;13.70;77.80
46043;DHT22;32533;-33.854;18.542;2022-08-01T01:13:37;13.80;77.90
46043;DHT22;32533;-33.854;18.542;2022-08-01T01:16:12;13.70;76.90
46043;DHT22;32533;-33.854;18.542;2022-08-01T01:18:57;13.70;76.60
46043;DHT22;32533;-33.854;18.542;2022-08-01T01:24:40;13.60;76.60
46043;DHT22;32533;-33.854;18.542;2022-08-01T01:27:24;13.60;76.00
46043;DHT22;32533;-33.854;18.542;2022-08-01T01:29:57;13.60;75.80
46043;DHT22;32533;-33.854;18.542;2022-08-01T01:35:04;13.60;75.30
46043;DHT22;32533;-33.854;18.542;2022-08-01T01:37:32;13.50;75.10
46043;DHT22;32533;-33.854;18.542;2022-08-01T01:40:00;13.50;74.90
46043;DHT22;32533;-33.854;18.542;2022-08-01T01:42:29;13.50;74.90
46043;DHT22;32533;-33.854;18.542;2022-08-01T01:44:57;13.50;75.10
46043;DHT22;32533;-33.854;18.542;2022-08-01T01:47:25;13.50;75.30
46043;DHT22;32533;-33.854;18.542;2022-08-01T01:49:54;13.50;75.10
46043;DHT22;32533;-33.854;18.542;2022-08-01T01:52:23;13.40;74.80
46043;DHT22;32533;-33.854;18.542;2022-08-01T01:54:52;13.40;74.80
46043;DHT22;32533;-33.854;18.542;2022-08-01T01:57:20;13.40;74.50
46043;DHT22;32533;-33.854;18.542;2022-08-01T01:59:48;13.40;74.50
46043;DHT22;32533;-33.854;18.542;2022-08-01T02:02:16;13.40;74.30
46043;DHT22;32533;-33.854;18.542;2022-08-01T02:04:45;13.40;74.10
46043;DHT22;32533;-33.854;18.542;2022-08-01T02:07:17;13.40;74.10
46043;DHT22;32533;-33.854;18.542;2022-08-01T02:09:46;13.40;74.00
46043;DHT22;32533;-33.854;18.542;2022-08-01T02:12:14;13.30;73.80
46043;DHT22;32533;-33.854;18.542;2022-08-01T02:14:43;13.30;73.70
46043;DHT22;32533;-33.854;18.542;2022-08-01T02:17:12;13.30;73.60
46043;DHT22;32533;-33.854;18.542;2022-08-01T02:19:41;13.30;73.60
46043;DHT22;32533;-33.854;18.542;2022-08-01T02:22:32;13.30;73.50
46043;DHT22;32533;-33.854;18.542;2022-08-01T02:30:37;13.20;73.30
46043;DHT22;32533;-33.854;18.542;2022-08-01T02:33:14;13.20;73.30
46043;DHT22;32533;-33.854;18.542;2022-08-01T02:35:43;13.20;73.30
46043;DHT22;32533;-33.854;18.542;2022-08-01T02:38:13;13.20;73.00
46043;DHT22;32533;-33.854;18.542;2022-08-01T02:40:43;13.20;73.40
46043;DHT22;32533;-33.854;18.542;2022-08-01T02:43:12;13.20;74.10
46043;DHT22;32533;-33.854;18.542;2022-08-01T02:45:45;13.20;74.70
46043;DHT22;32533;-33.854;18.542;2022-08-01T02:48:15;13.30;74.80
46043;DHT22;32533;-33.854;18.542;2022-08-01T02:50:47;13.30;74.40
46043;DHT22;32533;-33.854;18.542;2022-08-01T02:53:17;13.30;74.40
46043;DHT22;32533;-33.854;18.542;2022-08-01T02:55:45;13.20;74.00
46043;DHT22;32533;-33.854;18.542;2022-08-01T02:58:16;13.20;73.50
46043;DHT22;32533;-33.854;18.542;2022-08-01T03:00:45;13.20;73.30
46043;DHT22;32533;-33.854;18.542;2022-08-01T03:03:14;13.20;73.10
46043;DHT22;32533;-33.854;18.542;2022-08-01T03:05:42;13.20;73.00
46043;DHT22;32533;-33.854;18.542;2022-08-01T03:08:10;13.20;72.90
46043;DHT22;32533;-33.854;18.542;2022-08-01T03:10:39;13.10;72.70
46043;DHT22;32533;-33.854;18.542;2022-08-01T03:13:07;13.10;72.60
46043;DHT22;32533;-33.854;18.542;2022-08-01T03:15:37;13.10;72.80
46043;DHT22;32533;-33.854;18.542;2022-08-01T03:18:06;13.10;72.80
46043;DHT22;32533;-33.854;18.542;2022-08-01T03:20:34;13.10;72.60
46043;DHT22;32533;-33.854;18.542;2022-08-01T03:23:06;13.10;72.60
46043;DHT22;32533;-33.854;18.542;2022-08-01T03:25:36;13.10;72.50
46043;DHT22;32533;-33.854;18.542;2022-08-01T03:28:06;13.10;72.40
46043;DHT22;32533;-33.854;18.542;2022-08-01T03:30:33;13.10;72.40
46043;DHT22;32533;-33.854;18.542;2022-08-01T03:33:01;13.10;72.30
46043;DHT22;32533;-33.854;18.542;2022-08-01T03:35:33;13.10;73.20
46043;DHT22;32533;-33.854;18.542;2022-08-01T03:38:01;13.00;73.40
46043;DHT22;32533;-33.854;18.542;2022-08-01T03:40:40;13.00;74.00
46043;DHT22;32533;-33.854;18.542;2022-08-01T03:43:13;13.10;74.60
46043;DHT22;32533;-33.854;18.542;2022-08-01T03:45:47;13.10;74.90
46043;DHT22;32533;-33.854;18.542;2022-08-01T03:48:17;13.10;75.30
46043;DHT22;32533;-33.854;18.542;2022-08-01T03:50:49;13.10;75.70
46043;DHT22;32533;-33.854;18.542;2022-08-01T03:53:22;13.10;75.80
46043;DHT22;32533;-33.854;18.542;2022-08-01T03:55:50;13.10;76.00
46043;DHT22;32533;-33.854;18.542;2022-08-01T03:58:17;13.20;75.90
46043;DHT22;32533;-33.854;18.542;2022-08-01T04:00:44;13.10;74.80
46043;DHT22;32533;-33.854;18.542;2022-08-01T04:03:12;13.10;73.70
46043;DHT22;32533;-33.854;18.542;2022-08-01T04:05:43;13.10;73.30
46043;DHT22;32533;-33.854;18.542;2022-08-01T04:08:09;13.00;73.20
46043;DHT22;32533;-33.854;18.542;2022-08-01T04:10:37;13.00;71.70
46043;DHT22;32533;-33.854;18.542;2022-08-01T04:13:03;12.90;73.00
46043;DHT22;32533;-33.854;18.542;2022-08-01T04:15:30;12.90;73.90
46043;DHT22;32533;-33.854;18.542;2022-08-01T04:17:57;12.90;73.80
46043;DHT22;32533;-33.854;18.542;2022-08-01T04:20:23;12.90;73.40
46043;DHT22;32533;-33.854;18.542;2022-08-01T04:22:50;12.90;73.10
46043;DHT22;32533;-33.854;18.542;2022-08-01T04:25:25;12.90;72.60
46043;DHT22;32533;-33.854;18.542;2022-08-01T04:27:54;12.90;72.60
46043;DHT22;32533;-33.854;18.542;2022-08-01T04:30:43;12.80;73.00
46043;DHT22;32533;-33.854;18.542;2022-08-01T04:33:31;12.80;73.10
46043;DHT22;32533;-33.854;18.542;2022-08-01T04:35:59;12.80;73.10
46043;DHT22;32533;-33.854;18.542;2022-08-01T04:38:29;12.80;73.10
46043;DHT22;32533;-33.854;18.542;2022-08-01T04:41:16;12.80;72.80
46043;DHT22;32533;-33.854;18.542;2022-08-01T04:44:23;12.70;72.50
46043;DHT22;32533;-33.854;18.542;2022-08-01T04:47:29;12.70;72.60
46043;DHT22;32533;-33.854;18.542;2022-08-01T04:50:35;12.70;72.50
46043;DHT22;32533;-33.854;18.542;2022-08-01T04:53:21;12.70;72.40
46043;DHT22;32533;-33.854;18.542;2022-08-01T04:55:48;12.70;72.20
46043;DHT22;32533;-33.854;18.542;2022-08-01T04:58:15;12.70;72.00
46043;DHT22;32533;-33.854;18.542;2022-08-01T05:00:42;12.60;71.80
46043;DHT22;32533;-33.854;18.542;2022-08-01T05:03:08;12.60;71.70
46043;DHT22;32533;-33.854;18.542;2022-08-01T05:05:35;12.60;71.70
46043;DHT22;32533;-33.854;18.542;2022-08-01T05:08:01;12.60;71.90
46043;DHT22;32533;-33.854;18.542;2022-08-01T05:10:47;12.60;71.90
46043;DHT22;32533;-33.854;18.542;2022-08-01T05:13:54;12.60;71.90
46043;DHT22;32533;-33.854;18.542;2022-08-01T05:17:00;12.50;71.90
46043;DHT22;32533;-33.854;18.542;2022-08-01T05:20:06;12.50;71.80
46043;DHT22;32533;-33.854;18.542;2022-08-01T05:23:12;12.50;71.80
46043;DHT22;32533;-33.854;18.542;2022-08-01T05:26:18;12.50;71.80
46043;DHT22;32533;-33.854;18.542;2022-08-01T05:29:24;12.50;71.70
46043;DHT22;32533;-33.854;18.542;2022-08-01T05:32:30;12.50;71.50
46043;DHT22;32533;-33.854;18.542;2022-08-01T05:35:37;12.50;71.50
46043;DHT22;32533;-33.854;18.542;2022-08-01T05:38:43;12.40;71.50
46043;DHT22;32533;-33.854;18.542;2022-08-01T05:41:49;12.40;71.50
46043;DHT22;32533;-33.854;18.542;2022-08-01T05:44:55;12.40;71.50
46043;DHT22;32533;-33.854;18.542;2022-08-01T05:48:01;12.40;72.50
46043;DHT22;32533;-33.854;18.542;2022-08-01T05:51:07;12.40;73.10
46043;DHT22;32533;-33.854;18.542;2022-08-01T05:54:13;12.40;73.40
46043;DHT22;32533;-33.854;18.542;2022-08-01T05:57:19;12.50;73.60
46043;DHT22;32533;-33.854;18.542;2022-08-01T06:00:25;12.50;73.70
46043;DHT22;32533;-33.854;18.542;2022-08-01T06:03:31;12.50;73.30
46043;DHT22;32533;-33.854;18.542;2022-08-01T06:06:39;12.40;73.30
46043;DHT22;32533;-33.854;18.542;2022-08-01T06:09:45;12.40;73.20
46043;DHT22;32533;-33.854;18.542;2022-08-01T06:12:58;12.50;73.50
46043;DHT22;32533;-33.854;18.542;2022-08-01T06:15:41;12.50;72.90
46043;DHT22;32533;-33.854;18.542;2022-08-01T06:18:07;12.40;72.80
46043;DHT22;32533;-33.854;18.542;2022-08-01T06:20:34;12.40;72.80
46043;DHT22;32533;-33.854;18.542;2022-08-01T06:23:20;12.40;73.40
46043;DHT22;32533;-33.854;18.542;2022-08-01T06:25:52;12.40;72.80
46043;DHT22;32533;-33.854;18.542;2022-08-01T06:28:39;12.40;72.90
46043;DHT22;32533;-33.854;18.542;2022-08-01T06:31:45;12.40;73.00
46043;DHT22;32533;-33.854;18.542;2022-08-01T06:34:52;12.40;73.10
46043;DHT22;32533;-33.854;18.542;2022-08-01T06:37:58;12.40;73.40
46043;DHT22;32533;-33.854;18.542;2022-08-01T06:41:04;12.40;74.20
46043;DHT22;32533;-33.854;18.542;2022-08-01T06:44:10;12.40;73.80
46043;DHT22;32533;-33.854;18.542;2022-08-01T06:47:16;12.40;74.50
46043;DHT22;32533;-33.854;18.542;2022-08-01T06:50:22;12.50;75.20
46043;DHT22;32533;-33.854;18.542;2022-08-01T06:53:17;12.50;75.70
46043;DHT22;32533;-33.854;18.542;2022-08-01T06:56:04;12.50;76.20
46043;DHT22;32533;-33.854;18.542;2022-08-01T06:58:30;12.50;75.40
46043;DHT22;32533;-33.854;18.542;2022-08-01T07:00:57;12.50;75.30
46043;DHT22;32533;-33.854;18.542;2022-08-01T07:03:24;12.60;75.30
46043;DHT22;32533;-33.854;18.542;2022-08-01T07:05:50;12.60;75.90
46043;DHT22;32533;-33.854;18.542;2022-08-01T07:08:17;12.60;76.20
46043;DHT22;32533;-33.854;18.542;2022-08-01T07:10:43;12.60;76.40
46043;DHT22;32533;-33.854;18.542;2022-08-01T07:13:10;12.60;76.40
46043;DHT22;32533;-33.854;18.542;2022-08-01T07:15:38;12.60;76.20
46043;DHT22;32533;-33.854;18.542;2022-08-01T07:18:04;12.70;76.00
46043;DHT22;32533;-33.854;18.542;2022-08-01T07:20:31;12.70;75.90
46043;DHT22;32533;-33.854;18.542;2022-08-01T07:22:57;12.70;75.80
46043;DHT22;32533;-33.854;18.542;2022-08-01T07:25:24;12.70;75.70
46043;DHT22;32533;-33.854;18.542;2022-08-01T07:27:50;12.70;75.60
46043;DHT22;32533;-33.854;18.542;2022-08-01T07:30:16;12.70;75.50
46043;DHT22;32533;-33.854;18.542;2022-08-01T07:32:43;12.80;75.40
46043;DHT22;32533;-33.854;18.542;2022-08-01T07:35:10;12.80;75.10
46043;DHT22;32533;-33.854;18.542;2022-08-01T07:37:36;12.80;74.90
46043;DHT22;32533;-33.854;18.542;2022-08-01T07:40:03;12.90;74.80
46043;DHT22;32533;-33.854;18.542;2022-08-01T07:42:31;12.90;74.60
46043;DHT22;32533;-33.854;18.542;2022-08-01T07:44:58;12.90;74.30
46043;DHT22;32533;-33.854;18.542;2022-08-01T07:47:25;12.90;73.90
46043;DHT22;32533;-33.854;18.542;2022-08-01T07:49:52;12.90;73.90
46043;DHT22;32533;-33.854;18.542;2022-08-01T07:52:24;13.00;73.70
46043;DHT22;32533;-33.854;18.542;2022-08-01T07:55:12;13.00;73.70
46043;DHT22;32533;-33.854;18.542;2022-08-01T07:58:18;13.00;73.40
46043;DHT22;32533;-33.854;18.542;2022-08-01T08:01:24;13.10;73.00
46043;DHT22;32533;-33.854;18.542;2022-08-01T08:04:30;13.10;73.00
46043;DHT22;32533;-33.854;18.542;2022-08-01T08:07:37;13.10;72.90
46043;DHT22;32533;-33.854;18.542;2022-08-01T08:10:43;13.20;72.40
46043;DHT22;32533;-33.854;18.542;2022-08-01T08:13:49;13.20;72.50
46043;DHT22;32533;-33.854;18.542;2022-08-01T08:16:55;13.20;72.70
46043;DHT22;32533;-33.854;18.542;2022-08-01T08:20:02;13.30;72.90
46043;DHT22;32533;-33.854;18.542;2022-08-01T08:23:13;13.30;72.90
46043;DHT22;32533;-33.854;18.542;2022-08-01T08:26:37;13.40;72.70
46043;DHT22;32533;-33.854;18.542;2022-08-01T08:29:25;13.50;72.70
46043;DHT22;32533;-33.854;18.542;2022-08-01T08:31:55;13.50;72.70
46043;DHT22;32533;-33.854;18.542;2022-08-01T08:34:22;13.60;73.40
46043;DHT22;32533;-33.854;18.542;2022-08-01T08:36:49;13.60;73.50
46043;DHT22;32533;-33.854;18.542;2022-08-01T08:39:16;13.70;73.70
46043;DHT22;32533;-33.854;18.542;2022-08-01T08:41:43;13.70;73.90
46043;DHT22;32533;-33.854;18.542;2022-08-01T08:44:10;13.80;74.20
46043;DHT22;32533;-33.854;18.542;2022-08-01T08:46:57;13.90;74.40
46043;DHT22;32533;-33.854;18.542;2022-08-01T08:49:27;13.90;74.40
46043;DHT22;32533;-33.854;18.542;2022-08-01T08:51:58;14.00;74.60
46043;DHT22;32533;-33.854;18.542;2022-08-01T08:54:25;14.10;74.80
46043;DHT22;32533;-33.854;18.542;2022-08-01T08:56:53;14.10;74.60
46043;DHT22;32533;-33.854;18.542;2022-08-01T08:59:20;14.10;74.10
46043;DHT22;32533;-33.854;18.542;2022-08-01T09:01:47;14.10;73.60
46043;DHT22;32533;-33.854;18.542;2022-08-01T09:04:14;14.20;73.30
46043;DHT22;32533;-33.854;18.542;2022-08-01T09:06:41;14.20;73.00
46043;DHT22;32533;-33.854;18.542;2022-08-01T09:09:08;14.20;73.30
46043;DHT22;32533;-33.854;18.542;2022-08-01T09:11:36;14.20;73.00
46043;DHT22;32533;-33.854;18.542;2022-08-01T09:14:17;14.30;72.90
46043;DHT22;32533;-33.854;18.542;2022-08-01T09:17:05;14.40;72.80
46043;DHT22;32533;-33.854;18.542;2022-08-01T09:19:37;14.40;72.70
46043;DHT22;32533;-33.854;18.542;2022-08-01T09:22:06;14.50;72.80
46043;DHT22;32533;-33.854;18.542;2022-08-01T09:24:34;14.50;72.00
46043;DHT22;32533;-33.854;18.542;2022-08-01T09:27:02;14.60;71.20
46043;DHT22;32533;-33.854;18.542;2022-08-01T09:29:41;14.60;69.90
46043;DHT22;32533;-33.854;18.542;2022-08-01T09:32:10;14.60;69.70
46043;DHT22;32533;-33.854;18.542;2022-08-01T09:34:37;14.60;69.90
46043;DHT22;32533;-33.854;18.542;2022-08-01T09:37:04;14.70;70.50
46043;DHT22;32533;-33.854;18.542;2022-08-01T09:39:35;14.80;70.50
46043;DHT22;32533;-33.854;18.542;2022-08-01T09:42:26;14.80;69.70
46043;DHT22;32533;-33.854;18.542;2022-08-01T09:44:53;14.80;69.30
46043;DHT22;32533;-33.854;18.542;2022-08-01T09:47:20;14.90;68.90
46043;DHT22;32533;-33.854;18.542;2022-08-01T09:49:57;15.00;68.70
46043;DHT22;32533;-33.854;18.542;2022-08-01T09:52:25;15.00;68.50
46043;DHT22;32533;-33.854;18.542;2022-08-01T09:54:56;15.10;66.50
46043;DHT22;32533;-33.854;18.542;2022-08-01T09:57:24;15.10;65.60
46043;DHT22;32533;-33.854;18.542;2022-08-01T09:59:53;15.20;66.00
46043;DHT22;32533;-33.854;18.542;2022-08-01T10:02:36;15.20;66.00
46043;DHT22;32533;-33.854;18.542;2022-08-01T10:05:05;15.30;64.60
46043;DHT22;32533;-33.854;18.542;2022-08-01T10:07:33;15.30;63.40
46043;DHT22;32533;-33.854;18.542;2022-08-01T10:10:14;15.40;62.60
46043;DHT22;32533;-33.854;18.542;2022-08-01T10:12:42;15.40;62.30
46043;DHT22;32533;-33.854;18.542;2022-08-01T10:15:09;15.50;62.50
46043;DHT22;32533;-33.854;18.542;2022-08-01T10:17:39;15.50;62.70
46043;DHT22;32533;-33.854;18.542;2022-08-01T10:20:07;15.60;62.90
46043;DHT22;32533;-33.854;18.542;2022-08-01T10:22:34;15.60;62.40
46043;DHT22;32533;-33.854;18.542;2022-08-01T10:25:04;15.70;62.60
46043;DHT22;32533;-33.854;18.542;2022-08-01T10:27:32;15.80;61.80
46043;DHT22;32533;-33.854;18.542;2022-08-01T10:30:04;15.90;61.40
46043;DHT22;32533;-33.854;18.542;2022-08-01T10:32:32;15.90;61.30
46043;DHT22;32533;-33.854;18.542;2022-08-01T10:35:01;16.00;61.10
46043;DHT22;32533;-33.854;18.542;2022-08-01T10:37:28;16.00;61.10
46043;DHT22;32533;-33.854;18.542;2022-08-01T10:39:55;16.10;60.80
46043;DHT22;32533;-33.854;18.542;2022-08-01T10:42:21;16.10;60.40
46043;DHT22;32533;-33.854;18.542;2022-08-01T10:44:48;16.10;60.10
46043;DHT22;32533;-33.854;18.542;2022-08-01T10:47:23;16.20;59.70
46043;DHT22;32533;-33.854;18.542;2022-08-01T10:50:11;16.20;59.40
46043;DHT22;32533;-33.854;18.542;2022-08-01T10:52:39;16.30;59.40
46043;DHT22;32533;-33.854;18.542;2022-08-01T10:55:07;16.30;59.70
46043;DHT22;32533;-33.854;18.542;2022-08-01T10:57:48;16.40;60.40
46043;DHT22;32533;-33.854;18.542;2022-08-01T11:00:18;16.50;60.60
46043;DHT22;32533;-33.854;18.542;2022-08-01T11:03:05;16.60;60.70
46043;DHT22;32533;-33.854;18.542;2022-08-01T11:05:33;16.70;60.90
46043;DHT22;32533;-33.854;18.542;2022-08-01T11:08:10;16.80;61.50
46043;DHT22;32533;-33.854;18.542;2022-08-01T11:10:41;16.80;61.30
46043;DHT22;32533;-33.854;18.542;2022-08-01T11:13:12;16.80;60.20
46043;DHT22;32533;-33.854;18.542;2022-08-01T11:15:40;16.90;60.40
46043;DHT22;32533;-33.854;18.542;2022-08-01T11:18:31;17.00;60.10
46043;DHT22;32533;-33.854;18.542;2022-08-01T11:21:02;17.00;59.30
46043;DHT22;32533;-33.854;18.542;2022-08-01T11:23:30;17.00;58.80
46043;DHT22;32533;-33.854;18.542;2022-08-01T11:28:27;17.10;58.50
46043;DHT22;32533;-33.854;18.542;2022-08-01T11:38:44;17.30;59.20
46043;DHT22;32533;-33.854;18.542;2022-08-01T11:41:14;17.40;59.70
46043;DHT22;32533;-33.854;18.542;2022-08-01T11:44:03;17.40;59.90
46043;DHT22;32533;-33.854;18.542;2022-08-01T11:52:14;17.60;60.50
46043;DHT22;32533;-33.854;18.542;2022-08-01T11:55:04;17.60;59.80
46043;DHT22;32533;-33.854;18.542;2022-08-01T11:57:32;17.70;59.70
46043;DHT22;32533;-33.854;18.542;2022-08-01T12:00:16;17.70;60.00
46043;DHT22;32533;-33.854;18.542;2022-08-01T12:02:53;17.80;60.00
46043;DHT22;32533;-33.854;18.542;2022-08-01T12:05:22;17.80;60.50
46043;DHT22;32533;-33.854;18.542;2022-08-01T12:07:52;17.80;59.90
46043;DHT22;32533;-33.854;18.542;2022-08-01T12:10:21;17.80;60.00
46043;DHT22;32533;-33.854;18.542;2022-08-01T12:12:50;17.90;59.90
46043;DHT22;32533;-33.854;18.542;2022-08-01T12:15:18;17.90;60.10
46043;DHT22;32533;-33.854;18.542;2022-08-01T12:17:49;18.00;59.60
46043;DHT22;32533;-33.854;18.542;2022-08-01T12:20:21;18.00;59.30
46043;DHT22;32533;-33.854;18.542;2022-08-01T12:22:52;18.00;59.40
46043;DHT22;32533;-33.854;18.542;2022-08-01T12:25:18;18.10;59.10
46043;DHT22;32533;-33.854;18.542;2022-08-01T12:27:46;18.10;58.60
46043;DHT22;32533;-33.854;18.542;2022-08-01T12:30:15;18.10;58.10
46043;DHT22;32533;-33.854;18.542;2022-08-01T12:32:44;18.10;58.10
46043;DHT22;32533;-33.854;18.542;2022-08-01T12:35:12;18.20;59.80
46043;DHT22;32533;-33.854;18.542;2022-08-01T12:37:47;18.20;59.00
46043;DHT22;32533;-33.854;18.542;2022-08-01T12:40:16;18.20;58.10
46043;DHT22;32533;-33.854;18.542;2022-08-01T12:42:46;18.20;57.80
46043;DHT22;32533;-33.854;18.542;2022-08-01T12:45:15;18.20;57.70
46043;DHT22;32533;-33.854;18.542;2022-08-01T12:47:43;18.30;57.70
46043;DHT22;32533;-33.854;18.542;2022-08-01T12:50:16;18.30;57.60
46043;DHT22;32533;-33.854;18.542;2022-08-01T12:52:43;18.30;58.20
46043;DHT22;32533;-33.854;18.542;2022-08-01T12:55:18;18.30;58.60
46043;DHT22;32533;-33.854;18.542;2022-08-01T12:57:59;18.30;58.50
46043;DHT22;32533;-33.854;18.542;2022-08-01T13:00:29;18.40;57.90
46043;DHT22;32533;-33.854;18.542;2022-08-01T13:08:11;18.40;57.10
46043;DHT22;32533;-33.854;18.542;2022-08-01T13:10:38;18.40;57.30
46043;DHT22;32533;-33.854;18.542;2022-08-01T13:13:05;18.40;57.40
46043;DHT22;32533;-33.854;18.542;2022-08-01T13:15:33;18.40;58.10
46043;DHT22;32533;-33.854;18.542;2022-08-01T13:20:47;18.40;57.80
46043;DHT22;32533;-33.854;18.542;2022-08-01T13:23:18;18.40;57.30
46043;DHT22;32533;-33.854;18.542;2022-08-01T13:25:54;18.40;57.20
46043;DHT22;32533;-33.854;18.542;2022-08-01T13:28:26;18.40;56.80
46043;DHT22;32533;-33.854;18.542;2022-08-01T13:30:53;18.40;57.20
46043;DHT22;32533;-33.854;18.542;2022-08-01T13:34:05;18.40;57.10
46043;DHT22;32533;-33.854;18.542;2022-08-01T13:37:11;18.40;56.90
46043;DHT22;32533;-33.854;18.542;2022-08-01T13:39:57;18.40;57.00
46043;DHT22;32533;-33.854;18.542;2022-08-01T13:42:24;18.30;56.70
46043;DHT22;32533;-33.854;18.542;2022-08-01T13:44:51;18.40;56.80
46043;DHT22;32533;-33.854;18.542;2022-08-01T13:47:17;18.40;57.00
46043;DHT22;32533;-33.854;18.542;2022-08-01T13:49:44;18.40;57.00
46043;DHT22;32533;-33.854;18.542;2022-08-01T13:52:10;18.40;57.20
46043;DHT22;32533;-33.854;18.542;2022-08-01T13:54:37;18.30;57.30
46043;DHT22;32533;-33.854;18.542;2022-08-01T13:57:04;18.40;57.50
46043;DHT22;32533;-33.854;18.542;2022-08-01T13:59:31;18.30;57.70
46043;DHT22;32533;-33.854;18.542;2022-08-01T14:01:57;18.30;58.00
46043;DHT22;32533;-33.854;18.542;2022-08-01T14:04:24;18.30;58.20
46043;DHT22;32533;-33.854;18.542;2022-08-01T14:06:50;18.30;58.40
46043;DHT22;32533;-33.854;18.542;2022-08-01T14:09:17;18.30;58.60
46043;DHT22;32533;-33.854;18.542;2022-08-01T14:11:45;18.30;58.60
46043;DHT22;32533;-33.854;18.542;2022-08-01T14:14:12;18.20;58.40
46043;DHT22;32533;-33.854;18.542;2022-08-01T14:16:39;18.20;58.60
46043;DHT22;32533;-33.854;18.542;2022-08-01T14:19:05;18.20;59.00
46043;DHT22;32533;-33.854;18.542;2022-08-01T14:21:32;18.20;59.40
46043;DHT22;32533;-33.854;18.542;2022-08-01T14:23:58;18.20;59.80
46043;DHT22;32533;-33.854;18.542;2022-08-01T14:26:25;18.20;60.60
46043;DHT22;32533;-33.854;18.542;2022-08-01T14:28:51;18.20;60.60
46043;DHT22;32533;-33.854;18.542;2022-08-01T14:31:18;18.20;60.80
46043;DHT22;32533;-33.854;18.542;2022-08-01T14:33:44;18.20;61.20
46043;DHT22;32533;-33.854;18.542;2022-08-01T14:36:11;18.10;61.50
46043;DHT22;32533;-33.854;18.542;2022-08-01T14:38:37;18.10;61.70
46043;DHT22;32533;-33.854;18.542;2022-08-01T14:41:04;18.10;61.90
46043;DHT22;32533;-33.854;18.542;2022-08-01T14:43:31;18.10;62.00
46043;DHT22;32533;-33.854;18.542;2022-08-01T14:45:58;18.00;62.10
46043;DHT22;32533;-33.854;18.542;2022-08-01T14:48:25;18.00;62.60
46043;DHT22;32533;-33.854;18.542;2022-08-01T14:50:51;18.00;63.20
46043;DHT22;32533;-33.854;18.542;2022-08-01T14:53:18;17.90;63.80
46043;DHT22;32533;-33.854;18.542;2022-08-01T14:55:44;17.90;64.30
46043;DHT22;32533;-33.854;18.542;2022-08-01T14:58:11;17.80;64.40
46043;DHT22;32533;-33.854;18.542;2022-08-01T15:00:37;17.80;64.80
46043;DHT22;32533;-33.854;18.542;2022-08-01T15:03:04;17.70;65.70
46043;DHT22;32533;-33.854;18.542;2022-08-01T15:05:30;17.70;65.90
46043;DHT22;32533;-33.854;18.542;2022-08-01T15:07:58;17.60;65.90
46043;DHT22;32533;-33.854;18.542;2022-08-01T15:10:25;17.60;65.80
46043;DHT22;32533;-33.854;18.542;2022-08-01T15:12:51;17.60;65.80
46043;DHT22;32533;-33.854;18.542;2022-08-01T15:15:18;17.50;66.00
46043;DHT22;32533;-33.854;18.542;2022-08-01T15:17:45;17.50;66.70
46043;DHT22;32533;-33.854;18.542;2022-08-01T15:20:11;17.50;67.30
46043;DHT22;32533;-33.854;18.542;2022-08-01T15:22:38;17.40;67.40
46043;DHT22;32533;-33.854;18.542;2022-08-01T15:25:05;17.40;67.70
46043;DHT22;32533;-33.854;18.542;2022-08-01T15:27:31;17.40;67.70
46043;DHT22;32533;-33.854;18.542;2022-08-01T15:29:58;17.30;67.90
46043;DHT22;32533;-33.854;18.542;2022-08-01T15:32:25;17.30;68.20
46043;DHT22;32533;-33.854;18.542;2022-08-01T15:34:51;17.30;68.50
46043;DHT22;32533;-33.854;18.542;2022-08-01T15:37:18;17.20;68.70
46043;DHT22;32533;-33.854;18.542;2022-08-01T15:39:44;17.30;69.00
46043;DHT22;32533;-33.854;18.542;2022-08-01T15:42:16;17.20;69.30
46043;DHT22;32533;-33.854;18.542;2022-08-01T15:44:43;17.20;69.60
46043;DHT22;32533;-33.854;18.542;2022-08-01T15:47:10;17.20;69.80
46043;DHT22;32533;-33.854;18.542;2022-08-01T15:49:37;17.20;70.20
46043;DHT22;32533;-33.854;18.542;2022-08-01T15:52:05;17.10;70.70
46043;DHT22;32533;-33.854;18.542;2022-08-01T15:54:32;17.10;71.20
46043;DHT22;32533;-33.854;18.542;2022-08-01T15:56:59;17.10;71.40
46043;DHT22;32533;-33.854;18.542;2022-08-01T15:59:48;17.00;71.70
46043;DHT22;32533;-33.854;18.542;2022-08-01T16:02:39;17.00;72.40
46043;DHT22;32533;-33.854;18.542;2022-08-01T16:05:07;17.00;73.30
46043;DHT22;32533;-33.854;18.542;2022-08-01T16:07:34;17.00;73.90
46043;DHT22;32533;-33.854;18.542;2022-08-01T16:10:04;17.00;74.40
46043;DHT22;32533;-33.854;18.542;2022-08-01T16:12:31;17.00;74.70
46043;DHT22;32533;-33.854;18.542;2022-08-01T16:15:02;17.00;75.00
46043;DHT22;32533;-33.854;18.542;2022-08-01T16:17:29;16.90;75.30
46043;DHT22;32533;-33.854;18.542;2022-08-01T16:19:55;16.90;75.60
46043;DHT22;32533;-33.854;18.542;2022-08-01T16:22:22;16.90;75.80